KERO2: Robert S. Kerr Lock & Dam & Reservoir (L&D 15)

Data processed at Fri Sep 15 2017 23:15


All information presented herein is the property of the government of the United States of America and may be revised or deleted at any time without prior notice.
Dissemination of this information without the expressed written consent of the Public Affairs Office, Tulsa District U.S. Army Corps of Engineers is strictly prohibited.
These data are gathered electronically and, as presented, have not undergone any form of quality control. These data are not guaranteed to be valid or correct.
Go to home page.
Go to station list.

Upstream stations:

Downstream station:
Previous Day
Next Day
Current Day
    
SHEF ID:       KERO2     Robert S. Kerr Lock & Dam
STATION TYPE:  NAVIGATION LOCK
Normal Pool:  Bottom =   458.00, Top =   460.00

               PRECIP ELEVATION   STORAGE   TW-ELEV    INFLOW   RELEASE  AIR-TEMP  WIND-DIRWIND-SPEED REL-HUMID SOLAR-RAD   VOLTAGE  BAT-LOAD
                   in        ft     ac-ft        ft       cfs       cfs         F       deg       mph         %      W/m2      volt      volt
              Ccp-Rev   Ccp-Rev   Ccp-Rev   Ccp-Rev  Regi-Rev  Regi-Rev   Ccp-Rev   Ccp-Rev   Ccp-Rev   Ccp-Rev   Ccp-Rev   Ccp-Rev   Ccp-Rev
(US/Central)
09/13 00:00      0.00    459.70    512760    412.69      7597     14400     66.40    288.20      3.68     63.87      0.00     13.83     13.36
09/13 01:00      0.00    459.64    510174    411.68      6803         0     65.52    294.10      2.25     65.77      0.00     13.85     13.36
09/13 02:00      0.00    459.70    512760    412.92      7177         0     63.88    288.20      0.85     73.03      1.00     13.83     13.48
09/13 03:00      0.00    459.70    512760    412.09     10306         0     62.11    304.10      0.81     80.73      0.00     13.83     13.36
09/13 04:00      0.00    459.71    513191    412.52     10306         0     60.03    271.10      0.85     88.67      0.00     13.83     13.36
09/13 05:00      0.00    459.74    514484    412.45      4172         0     59.81    275.80      0.86     88.13      0.00     13.85     13.36
09/13 06:00      0.00    459.75    514915    412.30      5215         0     58.95    305.60      0.81    100.34      0.00     13.82     13.48
09/13 07:00      0.00    459.74    514484    412.41      4886         0     58.37      4.50      0.99    100.27      0.00     13.83     13.36
09/13 08:00      0.00    459.75    514915    412.14      1757         0     60.91     29.80      0.66     98.20     52.00     13.83     13.36
09/13 09:00      0.00    459.76    515346    412.32      1757         0     67.30     27.80      0.62     85.75    261.00     13.83     13.42
09/13 10:00      0.00    459.77    515777    412.19      1757         0     68.50    222.80      4.58     80.13    485.00     13.83     13.36
09/13 11:00      0.00    459.77    515777    412.22       723         0     71.13    217.40      7.45     67.42    668.00     13.83     13.36
09/13 12:00      0.00    459.78    516208    412.60        18         0     75.43    228.40      8.39     54.78    783.00     13.84     13.36
09/13 13:00      0.00    459.77    515777    413.16        28     14400     78.39    229.90      9.47     48.55    930.00     13.77     13.36
09/13 14:00      0.00    459.67    511467    413.62      2085     14700     80.24    230.60     10.54     42.62    927.00     13.86     13.36
09/13 15:00      0.00    459.64    510174    414.43      4143     31150     82.44    229.00      9.82     37.12    878.00     13.85     13.48
09/13 16:00      0.00    459.60    508450    414.35      8278     31150     83.43    222.90      7.35     41.52    780.00     13.85     13.36
09/13 17:00      0.00    459.56    506726    414.41     10306     31150     84.07    218.50      5.64     38.34    610.00     13.88     13.36
09/13 18:00      0.00    459.54    505864    414.23     17092     31150     82.74    181.10      3.33     43.59    381.00     13.88     13.48
09/13 19:00      0.00    459.53    505433    412.84     15302     15400     79.45    182.40      1.79     56.96    128.00     13.86     13.48
09/13 20:00      0.00    459.51    504571    412.05     13513      7900     72.75    260.40      0.50     72.16      9.00     13.86     13.36
09/13 21:00      0.00    459.55    506295    412.21     11455      7900     69.57     25.30      1.11     86.34      0.00     13.85     13.36
09/13 22:00      0.00    459.57    507157    411.71     11504         0     68.58     20.90      0.48     86.94      0.00     13.85     13.36
09/13 23:00      0.00    459.59    508019    412.39      7838         0     65.62     23.60      1.88     94.76      0.00     13.85     13.36